Terminal Aerodrome Forecast
Issued by NWS

Home | Current Version | Previous Version | Text Only | Print | Product List | Glossary On
Versions: 1 2 3 4 5 6 7 8 9 10 11 12 13 14
000
FTUS45 KSLC 211145
TAFSGU
TAF
KSGU 211145Z 2112/2212 12009KT P6SM BKN050 BKN150
     FM211500 14007KT P6SM SCT070 BKN100
     FM212000 23012G19KT P6SM BKN200
     FM220100 20007KT P6SM SCT100 SCT200
      AMD LTD TO CLD VIS AND WIND=

USA.gov is the U.S. government's official web portal to all federal, state and local government web resources and services.